Time;durP1;ratioP1;P1;durP2;ratioP2;P2;SDS_P1;SDS_P2;PMS_P1;PMS_P2;Temp;Humidity;BMP_temperature;BMP_pressure;BME280_temperature;BME280_humidity;BME280_pressure;Samples;Min_cycle;Max_cycle;Signal;HPM_P1;HPM_P2
2023/07/24 00:01:13;;;;;;;6.80;4.40;;;;;;;16.65;67.94;96771.18;107594;1239;96655;-74
2023/07/24 00:03:39;;;;;;;6.60;4.80;;;;;;;16.57;68.05;96769.89;107641;1239;97941;-77
2023/07/24 00:06:05;;;;;;;6.90;5.10;;;;;;;16.53;68.15;96768.79;107702;1238;96815;-75
2023/07/24 00:08:31;;;;;;;7.60;4.80;;;;;;;16.55;68.28;96770.86;107683;1250;96696;-75
2023/07/24 00:10:58;;;;;;;7.10;4.70;;;;;;;16.55;68.47;96768.74;107646;1238;97071;-76
2023/07/24 00:13:24;;;;;;;6.70;5.10;;;;;;;16.54;68.64;96771.95;107598;1238;97205;-75
2023/07/24 00:15:51;;;;;;;7.80;4.70;;;;;;;16.53;68.66;96769.89;107671;1241;97008;-85
2023/07/24 00:18:17;;;;;;;5.40;4.60;;;;;;;16.48;68.70;96766.86;107668;1243;96786;-85
2023/07/24 00:20:44;;;;;;;6.50;4.70;;;;;;;16.46;68.85;96769.13;107634;1242;97490;-84
2023/07/24 00:23:10;;;;;;;6.70;5.10;;;;;;;16.42;68.90;96768.45;107416;1239;97683;-72
2023/07/24 00:25:36;;;;;;;6.40;4.50;;;;;;;16.38;68.96;96760.32;107400;1241;96820;-72
2023/07/24 00:28:02;;;;;;;6.40;4.90;;;;;;;16.39;69.23;96761.85;107535;1239;96573;-73
2023/07/24 00:30:29;;;;;;;6.90;4.70;;;;;;;16.40;69.16;96761.86;107084;1238;97129;-74
2023/07/24 00:32:55;;;;;;;6.10;4.80;;;;;;;16.37;69.28;96764.17;107515;1238;97800;-74
2023/07/24 00:35:21;;;;;;;6.20;4.80;;;;;;;16.30;69.37;96758.03;107486;1241;96651;-74
2023/07/24 00:37:48;;;;;;;6.40;4.90;;;;;;;16.32;69.47;96757.61;107566;1248;96609;-73
2023/07/24 00:40:14;;;;;;;5.60;4.20;;;;;;;16.30;69.43;96754.48;107619;1241;97090;-74
2023/07/24 00:42:40;;;;;;;8.30;5.00;;;;;;;16.26;69.48;96752.25;107531;1239;96609;-73
2023/07/24 00:45:08;;;;;;;7.70;4.80;;;;;;;16.21;69.58;96747.84;107599;1241;97287;-72
2023/07/24 00:47:35;;;;;;;5.80;4.50;;;;;;;16.23;69.65;96747.48;107934;1239;96625;-74
2023/07/24 00:50:01;;;;;;;10.40;5.10;;;;;;;16.24;69.81;96744.81;107701;1238;96568;-74
2023/07/24 00:52:28;;;;;;;9.80;5.10;;;;;;;16.26;69.99;96744.02;107545;1238;102357;-73
2023/07/24 00:54:54;;;;;;;10.00;5.30;;;;;;;16.19;69.71;96740.27;107584;1239;97167;-76
2023/07/24 00:57:21;;;;;;;8.80;5.30;;;;;;;16.10;69.79;96736.83;107588;1242;97474;-74
2023/07/24 00:59:47;;;;;;;9.80;5.00;;;;;;;16.10;69.85;96740.15;107672;1238;97681;-75
2023/07/24 01:02:13;;;;;;;8.90;5.50;;;;;;;16.14;69.87;96739.11;107194;1238;101435;-72
2023/07/24 01:04:40;;;;;;;7.70;5.10;;;;;;;16.19;69.92;96736.56;107624;1242;96520;-71
2023/07/24 01:07:06;;;;;;;6.80;5.00;;;;;;;16.20;69.84;96735.92;107489;1241;97801;-72
2023/07/24 01:09:32;;;;;;;7.20;4.90;;;;;;;16.23;69.86;96732.99;107629;1247;96570;-75
2023/07/24 01:12:17;;;;;;;7.80;4.80;;;;;;;16.28;69.93;96731.67;107620;1242;101040;-73
2023/07/24 01:14:52;;;;;;;6.60;5.10;;;;;;;16.32;69.91;96734.02;107562;1251;99774;-73
2023/07/24 01:17:25;;;;;;;7.10;5.30;;;;;;;16.33;69.84;96733.58;107297;1246;98751;-85
2023/07/24 01:19:55;;;;;;;8.20;4.70;;;;;;;16.35;69.94;96732.08;107639;1241;97487;-86
2023/07/24 01:22:44;;;;;;;6.90;4.70;;;;;;;16.38;69.95;96734.71;107481;1243;97685;-76
2023/07/24 01:25:35;;;;;;;7.80;4.90;;;;;;;16.38;69.88;96730.85;107573;1241;102438;-85
2023/07/24 01:28:01;;;;;;;7.20;4.20;;;;;;;16.37;70.15;96730.84;107290;1248;100431;-85
2023/07/24 01:30:28;;;;;;;5.50;4.90;;;;;;;16.40;70.30;96732.23;107527;1242;96475;-83
2023/07/24 01:32:54;;;;;;;7.00;4.90;;;;;;;16.38;70.32;96724.75;107570;1242;97128;-84
2023/07/24 01:35:21;;;;;;;8.40;5.50;;;;;;;16.40;70.40;96729.83;107624;1241;96479;-84
2023/07/24 01:37:49;;;;;;;7.20;5.10;;;;;;;16.40;70.36;96726.41;107635;1252;101396;-84
2023/07/24 01:40:16;;;;;;;7.10;4.80;;;;;;;16.43;70.37;96722.80;107575;1241;98469;-84
2023/07/24 01:42:42;;;;;;;8.20;4.50;;;;;;;16.46;70.51;96718.78;107588;1241;97832;-85
2023/07/24 01:45:11;;;;;;;7.70;5.30;;;;;;;16.47;70.67;96719.23;107618;1242;97115;-84
2023/07/24 01:47:38;;;;;;;5.40;4.70;;;;;;;16.49;70.77;96717.13;107588;1242;96586;-75
2023/07/24 01:50:05;;;;;;;7.20;4.90;;;;;;;16.49;70.90;96713.25;107578;1246;96591;-75
2023/07/24 01:52:31;;;;;;;6.90;5.20;;;;;;;16.46;71.01;96714.92;107654;1252;96603;-75
2023/07/24 01:54:57;;;;;;;10.20;5.30;;;;;;;16.47;71.09;96717.87;107715;1239;96809;-76
2023/07/24 01:57:23;;;;;;;6.90;4.50;;;;;;;16.50;71.15;96715.71;107582;1241;102179;-76
2023/07/24 01:59:50;;;;;;;5.50;4.60;;;;;;;16.54;71.39;96711.81;107463;1241;97484;-76
2023/07/24 02:02:16;;;;;;;6.80;4.60;;;;;;;16.58;71.33;96707.99;107702;1242;96613;-73
2023/07/24 02:04:43;;;;;;;7.20;4.80;;;;;;;16.61;71.47;96698.88;107698;1238;96626;-72
2023/07/24 02:07:09;;;;;;;8.40;4.80;;;;;;;16.65;71.55;96694.29;107573;1242;101918;-72
2023/07/24 02:09:35;;;;;;;7.20;4.80;;;;;;;16.65;71.64;96695.11;107658;1241;97598;-72
2023/07/24 02:12:02;;;;;;;6.30;5.00;;;;;;;16.67;71.80;96694.48;107652;1251;96785;-72
2023/07/24 02:14:28;;;;;;;7.20;5.40;;;;;;;16.72;71.93;96699.97;107648;1242;96597;-73
2023/07/24 02:16:54;;;;;;;7.00;4.30;;;;;;;16.75;71.75;96693.23;107615;1241;102054;-84
2023/07/24 02:19:21;;;;;;;8.30;4.80;;;;;;;16.79;71.94;96689.73;107681;1249;96651;-75
2023/07/24 02:21:47;;;;;;;8.50;4.40;;;;;;;16.81;71.98;96688.33;107413;1242;96578;-74
2023/07/24 02:24:13;;;;;;;8.60;5.30;;;;;;;16.83;72.13;96686.27;107606;1241;96594;-74
2023/07/24 02:26:40;;;;;;;6.60;5.10;;;;;;;16.86;72.07;96687.21;107582;1241;101286;-75
2023/07/24 02:29:06;;;;;;;5.80;4.60;;;;;;;16.90;72.08;96683.98;107631;1242;97512;-75
2023/07/24 02:31:34;;;;;;;6.40;4.50;;;;;;;16.93;71.95;96681.98;107462;1239;96795;-74
2023/07/24 02:34:01;;;;;;;5.90;4.90;;;;;;;16.97;72.03;96686.54;107059;1250;96623;-73
2023/07/24 02:36:27;;;;;;;6.70;4.60;;;;;;;17.04;72.09;96691.27;107620;1242;97487;-74
2023/07/24 02:38:53;;;;;;;8.60;5.30;;;;;;;17.07;72.23;96685.77;107295;1239;100449;-74
2023/07/24 02:41:19;;;;;;;7.60;5.00;;;;;;;17.11;72.29;96683.13;107607;1242;96626;-74
2023/07/24 02:43:46;;;;;;;6.70;4.70;;;;;;;17.13;72.24;96681.86;107632;1253;97800;-74
2023/07/24 02:46:12;;;;;;;7.80;5.10;;;;;;;17.17;72.38;96682.52;107636;1241;97986;-74
2023/07/24 02:48:38;;;;;;;7.70;4.90;;;;;;;17.19;72.29;96684.20;107565;1251;101228;-74
2023/07/24 02:51:05;;;;;;;9.40;4.80;;;;;;;17.22;72.18;96681.34;107564;1250;96596;-74
2023/07/24 02:53:31;;;;;;;6.60;4.90;;;;;;;17.25;72.19;96677.52;107572;1251;96796;-74
2023/07/24 02:55:57;;;;;;;6.80;5.20;;;;;;;17.27;72.26;96681.16;107626;1241;97473;-74
2023/07/24 02:58:23;;;;;;;8.80;5.10;;;;;;;17.31;72.36;96685.54;107488;1238;100277;-73
2023/07/24 03:00:50;;;;;;;6.80;4.70;;;;;;;17.33;72.35;96682.27;107611;1241;97477;-84
2023/07/24 03:03:16;;;;;;;6.50;4.90;;;;;;;17.34;72.45;96674.96;107509;1238;96785;-84
2023/07/24 03:05:42;;;;;;;5.80;4.50;;;;;;;17.37;72.26;96676.39;107512;1241;97833;-84
2023/07/24 03:08:09;;;;;;;7.80;5.00;;;;;;;17.38;72.41;96676.56;107565;1241;100727;-83
2023/07/24 03:10:35;;;;;;;5.30;4.80;;;;;;;17.40;72.21;96671.29;107484;1242;97125;-83
2023/07/24 03:13:01;;;;;;;7.30;5.00;;;;;;;17.42;72.40;96664.38;107639;1238;97503;-85
2023/07/24 03:15:28;;;;;;;6.30;4.60;;;;;;;17.45;72.49;96669.45;107729;1238;96612;-74
2023/07/24 03:17:54;;;;;;;8.20;5.10;;;;;;;17.47;72.60;96665.53;107472;1253;101320;-75
2023/07/24 03:20:21;;;;;;;9.10;5.40;;;;;;;17.49;72.64;96668.32;107518;1241;96818;-76
2023/07/24 03:22:47;;;;;;;5.50;4.20;;;;;;;17.51;72.48;96667.54;107586;1241;96574;-76
2023/07/24 03:25:14;;;;;;;8.00;4.60;;;;;;;17.56;72.45;96672.29;107757;1242;97141;-75
2023/07/24 03:27:40;;;;;;;8.70;5.10;;;;;;;17.61;72.39;96676.77;107267;1242;101155;-76
2023/07/24 03:30:07;;;;;;;8.20;4.70;;;;;;;17.65;72.33;96676.34;107173;1247;96769;-75
2023/07/24 03:32:33;;;;;;;8.60;4.60;;;;;;;17.70;72.02;96678.27;107246;1242;96583;-72
2023/07/24 03:34:59;;;;;;;6.80;5.00;;;;;;;17.75;72.00;96677.33;107272;1246;97007;-73
2023/07/24 03:37:26;;;;;;;7.30;5.00;;;;;;;17.79;72.01;96679.07;107263;1247;100782;-72
2023/07/24 03:39:52;;;;;;;5.80;4.80;;;;;;;17.83;72.10;96679.51;107242;1242;97365;-73
2023/07/24 03:42:27;;;;;;;8.70;5.10;;;;;;;17.86;72.03;96678.90;107196;1247;98092;-72
2023/07/24 03:44:54;;;;;;;5.40;4.90;;;;;;;17.91;71.97;96679.81;107276;1248;98626;-72
2023/07/24 03:47:21;;;;;;;6.70;5.30;;;;;;;17.95;71.78;96682.01;107177;1250;102461;-72
2023/07/24 03:49:47;;;;;;;8.20;5.20;;;;;;;18.00;71.62;96683.73;106793;1253;98280;-77
2023/07/24 03:52:14;;;;;;;9.40;5.20;;;;;;;18.08;71.24;96681.98;106931;1250;96835;-76
2023/07/24 03:54:41;;;;;;;5.60;5.00;;;;;;;18.17;70.86;96678.41;107021;1244;97558;-77
2023/07/24 03:57:08;;;;;;;7.10;4.90;;;;;;;18.24;70.82;96676.52;106949;1257;102193;-72
2023/07/24 03:59:34;;;;;;;9.10;5.00;;;;;;;18.30;70.60;96680.55;107166;1247;96663;-78
2023/07/24 04:02:01;;;;;;;6.80;4.90;;;;;;;18.33;70.69;96675.24;107062;1255;97823;-72
2023/07/24 04:04:27;;;;;;;7.50;5.30;;;;;;;18.38;70.67;96682.32;107196;1255;96594;-72
2023/07/24 04:06:54;;;;;;;5.90;4.80;;;;;;;18.42;70.68;96679.36;106985;1250;101404;-72
2023/07/24 04:09:20;;;;;;;7.10;4.90;;;;;;;18.45;70.51;96680.02;107031;1247;97488;-72
2023/07/24 04:11:46;;;;;;;9.20;5.30;;;;;;;18.48;70.59;96676.39;107120;1258;96852;-72
2023/07/24 04:14:12;;;;;;;5.10;4.40;;;;;;;18.52;70.69;96678.40;107081;1243;96739;-72
2023/07/24 04:16:39;;;;;;;6.60;5.00;;;;;;;18.54;70.83;96679.54;107012;1250;101521;-73
2023/07/24 04:19:05;;;;;;;6.40;5.20;;;;;;;18.56;70.90;96677.79;106995;1247;97122;-78
2023/07/24 04:21:31;;;;;;;9.80;5.30;;;;;;;18.57;70.81;96671.42;107266;1239;96897;-78
2023/07/24 04:23:58;;;;;;;7.80;5.80;;;;;;;18.61;70.75;96669.48;107608;1242;96556;-78
2023/07/24 04:26:24;;;;;;;8.50;5.40;;;;;;;18.63;70.97;96667.01;107504;1242;101094;-78
2023/07/24 04:28:50;;;;;;;11.60;8.00;;;;;;;18.65;70.85;96664.92;107538;1241;97361;-79
2023/07/24 04:31:17;;;;;;;20.00;10.00;;;;;;;18.68;70.67;96664.05;107598;1241;97497;-72
2023/07/24 04:33:43;;;;;;;20.90;11.10;;;;;;;18.72;70.57;96667.23;107592;1242;96575;-73
2023/07/24 04:36:09;;;;;;;11.50;8.20;;;;;;;18.75;70.65;96673.95;107135;1248;101295;-73
2023/07/24 04:38:35;;;;;;;12.50;7.70;;;;;;;18.79;70.60;96678.98;107591;1241;96473;-78
2023/07/24 04:41:02;;;;;;;9.60;6.10;;;;;;;18.83;70.73;96674.90;107570;1242;97823;-79
2023/07/24 04:43:32;;;;;;;7.40;5.40;;;;;;;18.88;70.67;96679.73;107707;1242;96593;-78
2023/07/24 04:45:58;;;;;;;9.70;5.70;;;;;;;18.92;70.35;96677.48;107134;1247;101374;-78
2023/07/24 04:48:24;;;;;;;7.60;5.20;;;;;;;18.98;70.27;96674.81;107526;1251;97833;-78
2023/07/24 04:50:57;;;;;;;7.70;5.30;;;;;;;19.01;70.43;96672.07;107566;1242;96600;-79
2023/07/24 04:53:23;;;;;;;11.50;5.80;;;;;;;19.05;69.99;96670.95;107616;1238;97821;-78
2023/07/24 04:55:50;;;;;;;7.50;6.10;;;;;;;19.09;69.67;96667.85;107620;1241;96591;-77
2023/07/24 04:58:16;;;;;;;7.70;6.20;;;;;;;19.13;70.00;96665.37;107691;1251;97112;-78
2023/07/24 05:00:42;;;;;;;9.70;6.10;;;;;;;19.15;70.05;96662.84;107686;1242;96578;-73
2023/07/24 05:03:11;;;;;;;9.10;6.40;;;;;;;19.17;70.18;96662.56;107635;1239;96569;-73
2023/07/24 05:05:38;;;;;;;8.30;5.50;;;;;;;19.17;70.13;96660.09;107538;1239;97000;-75
2023/07/24 05:08:05;;;;;;;10.40;6.10;;;;;;;19.17;70.30;96660.81;107588;1242;97444;-73
2023/07/24 05:10:35;;;;;;;9.40;6.20;;;;;;;19.19;70.30;96663.10;107686;1251;96561;-72
2023/07/24 05:13:02;;;;;;;7.40;6.00;;;;;;;19.20;70.25;96659.20;107190;1253;99562;-73
2023/07/24 05:15:28;;;;;;;8.10;5.90;;;;;;;19.21;70.25;96660.94;107613;1251;97829;-76
2023/07/24 05:17:54;;;;;;;7.20;5.70;;;;;;;19.21;70.20;96665.85;107484;1242;96581;-77
2023/07/24 05:20:21;;;;;;;6.60;5.20;;;;;;;19.23;70.23;96664.48;107695;1239;96531;-76
2023/07/24 05:22:47;;;;;;;7.20;5.60;;;;;;;19.25;70.22;96664.84;107507;1242;100006;-76
2023/07/24 05:25:13;;;;;;;8.10;5.70;;;;;;;19.27;70.42;96663.69;107540;1242;96484;-77
2023/07/24 05:27:39;;;;;;;7.30;5.70;;;;;;;19.31;70.65;96657.42;107584;1252;96657;-76
2023/07/24 05:30:06;;;;;;;9.10;5.90;;;;;;;19.37;70.59;96661.76;107611;1242;96661;-76
2023/07/24 05:32:33;;;;;;;8.30;6.10;;;;;;;19.41;70.61;96660.08;107629;1251;100084;-77
2023/07/24 05:34:59;;;;;;;7.90;6.00;;;;;;;19.47;70.05;96663.38;107677;1242;97045;-77
2023/07/24 05:37:25;;;;;;;8.00;6.10;;;;;;;19.53;69.87;96658.33;107492;1242;96884;-75
2023/07/24 05:39:51;;;;;;;6.40;5.30;;;;;;;19.62;69.56;96660.38;107632;1242;96590;-76
2023/07/24 05:42:18;;;;;;;8.00;5.80;;;;;;;19.74;69.17;96663.89;107553;1251;99355;-75
2023/07/24 05:44:44;;;;;;;7.60;5.70;;;;;;;19.85;68.73;96660.17;107633;1239;96577;-76
2023/07/24 05:47:10;;;;;;;8.00;6.10;;;;;;;19.94;68.45;96654.81;107542;1239;97365;-72
2023/07/24 05:49:36;;;;;;;8.90;6.20;;;;;;;20.05;68.14;96655.42;107711;1242;96507;-72
2023/07/24 05:52:03;;;;;;;8.10;5.70;;;;;;;20.18;67.60;96654.18;107457;1245;99093;-74
2023/07/24 05:54:29;;;;;;;8.90;6.30;;;;;;;20.32;67.26;96651.20;107636;1242;96658;-75
2023/07/24 05:56:56;;;;;;;7.40;5.50;;;;;;;20.46;66.86;96652.36;107595;1242;96576;-76
2023/07/24 05:59:22;;;;;;;10.50;7.10;;;;;;;20.60;66.39;96648.58;107655;1242;96561;-74
2023/07/24 06:01:48;;;;;;;6.70;5.30;;;;;;;20.72;66.15;96648.42;107811;1242;100069;-73
2023/07/24 06:04:14;;;;;;;9.20;6.00;;;;;;;20.83;65.89;96645.04;107552;1242;97800;-72
2023/07/24 06:06:41;;;;;;;11.40;6.10;;;;;;;20.93;65.34;96645.52;107648;1242;96572;-72
2023/07/24 06:09:07;;;;;;;9.10;5.90;;;;;;;21.02;65.31;96649.36;107642;1242;96626;-72
2023/07/24 06:11:33;;;;;;;6.70;5.60;;;;;;;21.10;65.01;96644.88;107335;1251;99153;-79
2023/07/24 06:14:00;;;;;;;7.90;5.30;;;;;;;21.19;64.79;96651.79;107589;1242;97020;-81
2023/07/24 06:16:26;;;;;;;13.10;7.40;;;;;;;21.27;64.61;96652.48;107550;1242;97478;-80
2023/07/24 06:18:52;;;;;;;8.40;6.00;;;;;;;21.35;64.44;96654.25;107647;1252;96601;-79
2023/07/24 06:21:18;;;;;;;7.40;6.10;;;;;;;21.43;64.30;96654.06;107254;1252;99322;-79
2023/07/24 06:23:45;;;;;;;10.10;6.20;;;;;;;21.50;64.43;96655.86;107634;1242;96840;-78
2023/07/24 06:26:11;;;;;;;11.00;7.10;;;;;;;21.59;64.17;96646.77;107601;1242;96630;-78
2023/07/24 06:28:37;;;;;;;7.50;5.90;;;;;;;21.70;64.12;96645.48;107595;1238;96572;-79
2023/07/24 06:31:04;;;;;;;9.70;6.00;;;;;;;21.78;63.97;96643.41;107499;1251;100252;-73
2023/07/24 06:33:30;;;;;;;7.90;6.20;;;;;;;21.86;63.77;96649.42;107444;1242;97592;-73
2023/07/24 06:35:56;;;;;;;10.80;6.10;;;;;;;21.93;63.83;96645.81;107372;1253;256591;-73
2023/07/24 06:38:23;;;;;;;7.50;6.10;;;;;;;22.03;63.80;96649.45;107596;1242;96562;-73
2023/07/24 06:40:49;;;;;;;7.30;6.00;;;;;;;22.14;63.37;96645.88;107460;1247;99160;-73
2023/07/24 06:43:15;;;;;;;11.40;6.50;;;;;;;22.23;63.28;96637.30;107622;1242;96614;-73
2023/07/24 06:45:42;;;;;;;8.80;5.90;;;;;;;22.33;63.25;96639.59;107509;1245;97029;-76
2023/07/24 06:48:08;;;;;;;9.30;6.90;;;;;;;22.45;62.99;96639.66;107632;1242;96472;-73
2023/07/24 06:50:34;;;;;;;9.40;6.70;;;;;;;22.53;62.61;96638.57;107371;1247;99196;-75
2023/07/24 06:53:00;;;;;;;8.20;6.40;;;;;;;22.59;62.73;96638.43;107526;1242;96811;-72
2023/07/24 06:55:27;;;;;;;8.90;6.60;;;;;;;22.64;62.43;96637.70;107552;1242;97480;-73
2023/07/24 06:57:53;;;;;;;9.10;6.60;;;;;;;22.75;62.45;96644.35;107548;1242;97366;-74
2023/07/24 07:00:19;;;;;;;9.90;6.20;;;;;;;22.83;61.98;96644.63;107283;1248;99037;-73
2023/07/24 07:02:46;;;;;;;12.00;7.10;;;;;;;22.89;61.77;96641.31;107702;1253;96653;-73
2023/07/24 07:05:12;;;;;;;8.60;6.90;;;;;;;22.95;61.57;96640.17;107556;1250;97497;-73
2023/07/24 07:07:39;;;;;;;10.30;6.20;;;;;;;23.04;61.47;96638.84;107709;1245;97508;-73
2023/07/24 07:10:07;;;;;;;10.70;6.90;;;;;;;23.13;61.55;96633.60;107144;1250;99148;-74
2023/07/24 07:12:33;;;;;;;10.30;6.40;;;;;;;23.23;61.26;96632.34;107572;1242;97823;-73
2023/07/24 07:14:59;;;;;;;8.30;6.80;;;;;;;23.33;61.05;96632.09;107674;1242;96570;-74
2023/07/24 07:17:25;;;;;;;10.90;6.60;;;;;;;23.43;61.02;96631.67;107686;1242;97796;-78
2023/07/24 07:19:52;;;;;;;10.70;7.00;;;;;;;23.54;61.03;96633.15;107194;1248;99165;-78
2023/07/24 07:22:18;;;;;;;11.00;6.50;;;;;;;23.63;60.48;96625.23;107631;1242;97860;-79
2023/07/24 07:24:46;;;;;;;7.70;6.40;;;;;;;23.73;60.62;96623.11;107558;1241;96578;-76
2023/07/24 07:27:12;;;;;;;8.50;6.40;;;;;;;23.84;60.32;96625.29;107554;1239;97025;-80
2023/07/24 07:29:39;;;;;;;11.70;7.10;;;;;;;23.92;59.93;96620.56;107580;1239;96545;-73
2023/07/24 07:32:06;;;;;;;10.00;7.20;;;;;;;24.02;60.02;96622.27;107111;1244;97715;-72
2023/07/24 07:34:32;;;;;;;10.70;7.20;;;;;;;24.13;59.63;96626.67;107618;1250;97489;-72
2023/07/24 07:36:58;;;;;;;9.00;6.70;;;;;;;24.22;59.51;96632.90;107598;1251;96577;-75
2023/07/24 07:39:24;;;;;;;10.60;7.50;;;;;;;24.33;59.52;96632.71;107697;1240;97165;-73
2023/07/24 07:41:51;;;;;;;9.60;6.90;;;;;;;24.46;59.23;96630.27;107116;1247;97731;-75
2023/07/24 07:44:17;;;;;;;10.80;7.00;;;;;;;24.57;58.69;96632.21;107714;1244;96550;-75
2023/07/24 07:46:43;;;;;;;11.20;7.30;;;;;;;24.69;58.17;96628.25;107644;1242;96645;-72
2023/07/24 07:49:10;;;;;;;11.00;7.30;;;;;;;24.91;57.76;96628.89;107281;1242;96766;-71
2023/07/24 07:52:10;;;;;;;12.20;7.50;;;;;;;25.17;56.58;96621.66;107382;1257;96677;-74
2023/07/24 07:55:17;;;;;;;8.90;7.50;;;;;;;25.52;56.24;96613.45;107236;1248;97785;-73
2023/07/24 07:58:12;;;;;;;10.70;7.90;;;;;;;25.97;55.53;96607.05;106695;1251;101088;-75
2023/07/24 08:00:54;;;;;;;9.70;6.90;;;;;;;26.42;54.60;96602.02;105976;1260;100369;-77
2023/07/24 08:03:34;;;;;;;8.00;6.40;;;;;;;26.88;53.75;96596.29;105966;1259;98905;-76
2023/07/24 08:06:15;;;;;;;9.10;7.50;;;;;;;27.33;53.29;96590.20;106020;1259;96640;-72
2023/07/24 08:08:51;;;;;;;9.10;7.20;;;;;;;27.72;52.55;96593.75;105935;1259;97590;-73
2023/07/24 08:11:38;;;;;;;9.50;6.20;;;;;;;28.10;52.17;96591.78;105908;1259;101150;-76
2023/07/24 08:14:11;;;;;;;8.10;6.50;;;;;;;28.47;51.14;96589.85;105823;1258;100710;-77
2023/07/24 08:16:58;;;;;;;12.00;6.70;;;;;;;28.65;50.23;96588.73;105429;1262;99010;-75
2023/07/24 08:19:28;;;;;;;9.70;6.20;;;;;;;28.65;49.44;96588.40;106005;1259;96691;-74
2023/07/24 08:21:55;;;;;;;10.60;6.50;;;;;;;28.61;49.10;96589.99;105748;1261;97312;-73
2023/07/24 08:24:36;;;;;;;8.80;6.10;;;;;;;28.66;48.45;96594.36;106191;1264;96637;-74
2023/07/24 08:27:17;;;;;;;8.60;6.10;;;;;;;28.75;48.39;96593.96;106357;1256;100357;-79
2023/07/24 08:29:43;;;;;;;10.50;7.10;;;;;;;28.99;47.67;96590.20;106303;1257;98526;-72
2023/07/24 08:32:09;;;;;;;7.70;5.70;;;;;;;29.22;47.09;96588.52;105815;1261;98351;-80
2023/07/24 08:34:36;;;;;;;8.30;6.20;;;;;;;29.55;46.70;96585.87;105931;1264;96594;-82
2023/07/24 08:37:02;;;;;;;8.50;6.10;;;;;;;29.90;46.36;96585.77;106500;1256;96588;-81
2023/07/24 09:55:11;;;;;;;10.00;8.50;;;;;;;34.05;32.94;96511.89;105555;1261;99293;-73
2023/07/24 09:57:38;;;;;;;11.80;8.30;;;;;;;34.09;32.61;96513.83;107018;1252;101187;-75
2023/07/24 10:00:07;;;;;;;11.30;9.00;;;;;;;34.09;31.79;96508.39;105810;1261;96419;-78
2023/07/24 10:02:33;;;;;;;10.90;7.60;;;;;;;34.03;31.52;96510.02;106090;1255;96850;-75
2023/07/24 10:05:01;;;;;;;10.00;8.70;;;;;;;34.00;30.96;96506.64;106593;1251;96793;-73
2023/07/24 10:07:29;;;;;;;10.80;8.60;;;;;;;34.02;31.09;96501.87;106628;1251;96786;-72
2023/07/24 10:09:57;;;;;;;10.80;8.50;;;;;;;34.02;30.54;96494.11;106409;1248;100229;-73
2023/07/24 10:12:27;;;;;;;11.50;8.30;;;;;;;34.12;30.62;96495.15;107604;1247;96344;-73
2023/07/24 10:14:55;;;;;;;14.30;8.20;;;;;;;34.23;30.29;96488.14;106460;1256;95851;-73
2023/07/24 10:17:41;;;;;;;13.10;8.00;;;;;;;34.29;30.06;96483.16;106265;1257;96951;-76
2023/07/24 10:20:10;;;;;;;10.00;8.30;;;;;;;34.27;29.72;96483.30;106689;1251;100948;-78
2023/07/24 10:22:41;;;;;;;9.20;8.20;;;;;;;34.27;29.10;96480.98;106698;1248;101847;-77
2023/07/24 10:25:09;;;;;;;10.80;8.40;;;;;;;34.22;29.29;96480.11;106641;1253;98434;-80
2023/07/24 10:27:46;;;;;;;9.80;8.20;;;;;;;34.21;29.96;96480.66;106696;1251;96774;-81
2023/07/24 10:30:13;;;;;;;10.20;8.50;;;;;;;34.30;30.15;96482.52;106466;1256;96173;-77
2023/07/24 10:32:50;;;;;;;9.50;8.50;;;;;;;34.24;29.19;96489.02;107415;1242;95853;-80
2023/07/24 10:35:17;;;;;;;12.60;8.60;;;;;;;33.89;28.64;96479.73;107438;1242;110279;-77
2023/07/24 10:37:44;;;;;;;11.00;9.30;;;;;;;33.74;29.02;96482.20;107530;1246;98845;-76
2023/07/24 10:40:20;;;;;;;10.20;8.50;;;;;;;33.68;30.06;96478.77;107513;1245;96800;-77
2023/07/24 10:42:46;;;;;;;10.70;9.20;;;;;;;33.62;29.94;96476.48;107566;1242;95866;-76
2023/07/24 10:45:13;;;;;;;10.90;8.40;;;;;;;33.76;29.79;96477.84;107525;1241;96991;-79
2023/07/24 10:47:39;;;;;;;10.10;9.00;;;;;;;33.88;29.60;96470.77;107632;1251;96273;-75
2023/07/24 10:50:06;;;;;;;9.30;8.30;;;;;;;33.99;29.67;96473.11;107505;1240;95929;-77
2023/07/24 10:52:33;;;;;;;10.00;8.30;;;;;;;34.08;29.47;96467.60;107346;1241;96037;-80
2023/07/24 10:55:08;;;;;;;10.10;8.60;;;;;;;34.12;30.08;96464.99;107525;1243;96139;-81
2023/07/24 10:57:34;;;;;;;10.40;8.60;;;;;;;33.97;30.29;96463.58;107303;1245;100214;-73
2023/07/24 11:00:00;;;;;;;9.20;8.20;;;;;;;33.68;30.50;96459.75;107664;1240;95998;-77
2023/07/24 11:02:29;;;;;;;12.40;9.10;;;;;;;33.39;30.93;96458.71;107597;1241;96775;-80
2023/07/24 11:04:59;;;;;;;10.50;8.90;;;;;;;33.32;31.21;96450.41;107595;1249;97258;-77
2023/07/24 11:07:26;;;;;;;10.80;8.60;;;;;;;33.34;31.08;96448.41;107774;1249;109464;-76
2023/07/24 11:09:53;;;;;;;10.90;8.80;;;;;;;33.30;31.00;96448.70;107586;1243;96122;-76
2023/07/24 11:12:19;;;;;;;10.70;8.80;;;;;;;33.17;30.24;96442.61;107541;1251;96666;-73
2023/07/24 11:14:55;;;;;;;11.30;8.90;;;;;;;33.12;30.22;96435.60;107605;1243;96492;-72
2023/07/24 11:17:22;;;;;;;10.10;9.00;;;;;;;33.21;30.33;96438.02;107625;1237;96322;-72
2023/07/24 11:19:49;;;;;;;10.70;9.10;;;;;;;33.35;30.01;96440.44;107619;1241;96802;-75
2023/07/24 11:22:15;;;;;;;9.20;8.00;;;;;;;33.48;30.45;96441.70;107622;1243;95825;-73
2023/07/24 11:24:48;;;;;;;10.80;9.10;;;;;;;33.61;29.88;96435.93;107716;1240;96772;-72
2023/07/24 11:27:16;;;;;;;11.70;8.80;;;;;;;33.75;29.92;96432.02;107521;1245;96582;-80
2023/07/24 11:29:48;;;;;;;11.10;9.30;;;;;;;33.92;29.49;96429.94;107150;1256;100767;-79
2023/07/24 11:32:19;;;;;;;15.00;9.50;;;;;;;34.05;29.41;96428.13;107316;1255;100292;-78
2023/07/24 11:34:50;;;;;;;11.20;9.70;;;;;;;34.18;29.48;96417.52;107173;1241;99857;-77
2023/07/24 11:37:18;;;;;;;12.00;9.20;;;;;;;34.30;29.09;96413.23;107293;1244;96539;-79
2023/07/24 11:39:58;;;;;;;10.40;8.60;;;;;;;34.43;29.14;96409.88;107351;1241;96126;-77
2023/07/24 11:42:27;;;;;;;10.30;9.20;;;;;;;34.57;28.77;96411.96;107029;1246;99434;-75
2023/07/24 11:44:54;;;;;;;11.20;9.40;;;;;;;34.60;29.35;96405.02;106916;1242;100958;-79
2023/07/24 11:47:41;;;;;;;11.40;9.50;;;;;;;34.70;28.96;96400.83;107196;1253;97053;-79
2023/07/24 11:50:08;;;;;;;12.10;9.40;;;;;;;34.86;28.37;96400.37;108864;1243;96009;-77
2023/07/24 11:52:39;;;;;;;14.70;9.90;;;;;;;35.00;28.40;96394.27;107362;1245;96725;-79
2023/07/24 11:55:06;;;;;;;11.60;9.00;;;;;;;35.20;28.47;96393.46;107369;1241;100712;-76
2023/07/24 11:57:32;;;;;;;11.70;9.10;;;;;;;35.35;28.28;96395.45;107304;1241;95956;-76
2023/07/24 11:59:59;;;;;;;10.70;8.20;;;;;;;35.43;28.48;96386.88;107301;1246;96234;-77
2023/07/24 12:02:28;;;;;;;12.70;8.90;;;;;;;35.35;28.62;96389.03;107727;1249;95817;-72
2023/07/24 12:04:59;;;;;;;11.00;9.60;;;;;;;35.31;28.53;96388.14;107276;1247;99811;-74
2023/07/24 12:07:36;;;;;;;12.60;9.30;;;;;;;35.28;28.40;96388.61;106745;1260;100443;-72
2023/07/24 12:10:05;;;;;;;12.80;8.70;;;;;;;35.31;27.95;96382.45;106985;1251;98959;-72
2023/07/24 12:12:44;;;;;;;14.70;9.20;;;;;;;35.30;27.72;96380.04;106688;1252;96060;-74
2023/07/24 12:15:11;;;;;;;12.10;9.70;;;;;;;35.33;28.27;96371.96;106824;1245;95985;-73
2023/07/24 12:17:38;;;;;;;11.20;9.60;;;;;;;35.40;29.21;96368.77;106732;1251;96887;-73
2023/07/24 12:20:13;;;;;;;11.50;9.00;;;;;;;35.45;28.45;96362.69;106797;1250;96394;-74
2023/07/24 12:22:39;;;;;;;12.40;9.90;;;;;;;35.41;27.96;96355.61;106953;1249;98331;-73
2023/07/24 12:25:07;;;;;;;14.70;8.90;;;;;;;35.44;28.14;96340.72;107049;1245;96044;-80
2023/07/24 12:27:33;;;;;;;11.00;9.50;;;;;;;35.52;28.23;96333.11;106985;1250;95911;-78
2023/07/24 12:30:01;;;;;;;11.60;9.30;;;;;;;35.56;27.90;96331.66;107504;1251;95874;-80
2023/07/24 12:32:27;;;;;;;13.40;9.90;;;;;;;35.48;27.79;96321.40;106609;1254;96746;-78
2023/07/24 12:34:54;;;;;;;12.70;9.80;;;;;;;35.44;27.93;96314.34;106952;1250;96264;-78
2023/07/24 12:37:20;;;;;;;14.20;9.60;;;;;;;35.35;27.64;96311.37;107160;1256;97017;-77
2023/07/24 12:39:48;;;;;;;14.00;10.60;;;;;;;35.32;28.13;96313.36;107132;1249;97318;-76
2023/07/24 12:42:15;;;;;;;11.40;9.20;;;;;;;35.31;27.80;96310.88;107187;1247;97525;-78